Time;durP1;ratioP1;P1;durP2;ratioP2;P2;SDS_P1;SDS_P2;PMS_P1;PMS_P2;Temp;Humidity;BMP_temperature;BMP_pressure;BME280_temperature;BME280_humidity;BME280_pressure;Samples;Min_cycle;Max_cycle;Signal;HPM_P1;HPM_P2
2023/03/29 00:00:19;;;;;;;3.05;1.50;;;;;;;18.66;40.07;101589.34;5053116;28;20052;-72
2023/03/29 00:02:47;;;;;;;2.90;1.30;;;;;;;18.64;39.98;101597.38;5052033;28;20029;-73
2023/03/29 00:05:14;;;;;;;3.53;1.20;;;;;;;18.65;39.93;101587.66;5052111;28;20033;-73
2023/03/29 00:07:40;;;;;;;3.35;1.25;;;;;;;18.61;39.88;101584.41;5051595;28;20036;-73
2023/03/29 00:10:08;;;;;;;2.90;1.15;;;;;;;18.60;39.76;101574.78;5051714;28;20489;-73
2023/03/29 00:12:34;;;;;;;3.53;1.30;;;;;;;18.62;39.91;101591.34;5051714;28;20032;-73
2023/03/29 00:15:00;;;;;;;1.90;1.00;;;;;;;18.59;39.97;101583.66;5052599;28;20469;-73
2023/03/29 00:17:26;;;;;;;3.50;1.35;;;;;;;18.60;39.69;101579.22;5052652;28;20043;-72
2023/03/29 00:19:51;;;;;;;2.67;1.20;;;;;;;18.59;39.81;101574.88;5051102;28;20052;-73
2023/03/29 00:22:17;;;;;;;4.38;1.40;;;;;;;18.60;39.81;101576.59;5051706;28;20076;-73
2023/03/29 00:24:42;;;;;;;5.10;2.30;;;;;;;18.58;39.97;101568.78;5052275;28;20037;-73
2023/03/29 00:27:07;;;;;;;4.75;1.35;;;;;;;18.55;39.79;101569.00;5052004;28;20037;-73
2023/03/29 00:29:33;;;;;;;3.28;1.20;;;;;;;18.48;39.78;101551.91;5051515;28;20036;-73
2023/03/29 00:31:58;;;;;;;3.05;1.25;;;;;;;18.56;39.63;101567.19;5051583;28;20031;-75
2023/03/29 00:34:25;;;;;;;4.15;1.38;;;;;;;18.55;39.66;101562.84;5051796;28;20492;-74
2023/03/29 00:36:51;;;;;;;3.80;1.30;;;;;;;18.51;39.49;101558.75;5051551;28;20124;-73
2023/03/29 00:39:19;;;;;;;3.65;1.20;;;;;;;18.52;39.68;101568.34;5041802;28;20036;-73
2023/03/29 00:41:46;;;;;;;3.08;1.17;;;;;;;18.50;39.75;101560.56;5042072;28;20089;-73
2023/03/29 00:44:48;;;;;;;2.83;1.23;;;;;;;18.49;39.89;101570.25;5051905;28;20086;-73
2023/03/29 00:47:15;;;;;;;2.97;1.20;;;;;;;18.47;40.41;101560.78;5051120;28;20166;-70
2023/03/29 00:49:40;;;;;;;2.65;1.20;;;;;;;18.50;40.04;101563.22;5050834;28;20528;-73
2023/03/29 00:52:06;;;;;;;3.30;1.10;;;;;;;18.49;40.09;101561.50;5051069;28;20157;-74
2023/03/29 00:54:33;;;;;;;4.47;1.30;;;;;;;18.47;39.83;101552.88;5050929;28;20029;-74
2023/03/29 00:57:02;;;;;;;3.40;1.58;;;;;;;18.46;39.90;101548.53;5049662;28;20408;-73
2023/03/29 00:59:31;;;;;;;2.63;1.00;;;;;;;18.45;40.00;101539.78;5052037;28;20033;-74
2023/03/29 01:02:01;;;;;;;2.88;1.10;;;;;;;18.45;39.91;101539.78;5051346;28;20081;-73
2023/03/29 01:04:31;;;;;;;3.78;1.30;;;;;;;18.47;39.97;101540.50;5051976;28;20492;-73
2023/03/29 01:07:05;;;;;;;5.53;1.30;;;;;;;18.45;39.70;101538.91;5051385;28;20140;-73
2023/03/29 01:09:34;;;;;;;3.00;1.30;;;;;;;18.43;39.70;101536.38;5051592;28;20036;-73
2023/03/29 01:12:04;;;;;;;2.78;1.15;;;;;;;18.44;39.63;101535.44;5051296;28;20037;-73
2023/03/29 01:14:29;;;;;;;3.17;1.20;;;;;;;18.46;39.71;101540.63;5050587;28;20040;-73
2023/03/29 01:16:54;;;;;;;2.30;1.10;;;;;;;18.45;39.94;101536.28;5051259;28;20040;-71
2023/03/29 01:19:25;;;;;;;2.63;1.27;;;;;;;18.43;39.88;101533.75;5049517;28;20028;-74
2023/03/29 01:22:00;;;;;;;2.90;1.20;;;;;;;18.43;39.76;101536.38;5041709;28;20037;-72
2023/03/29 01:24:49;;;;;;;4.25;1.30;;;;;;;18.44;39.61;101524.06;5052072;28;20033;-73
2023/03/29 01:27:38;;;;;;;3.70;1.48;;;;;;;18.40;39.38;101519.94;5051035;28;20127;-72
2023/03/29 01:30:12;;;;;;;3.85;1.40;;;;;;;18.40;39.62;101517.31;5050825;28;20033;-74
2023/03/29 01:33:06;;;;;;;2.53;1.42;;;;;;;18.37;39.68;101509.59;5050686;28;20043;-74
2023/03/29 01:35:56;;;;;;;3.13;1.10;;;;;;;18.38;39.77;101501.56;5061775;28;20535;-72
2023/03/29 01:38:30;;;;;;;2.15;1.10;;;;;;;18.39;39.66;101510.31;5051276;28;20379;-70
2023/03/29 01:40:56;;;;;;;3.70;1.20;;;;;;;18.38;39.78;101498.94;5051125;28;20036;-73
2023/03/29 01:43:42;;;;;;;2.38;1.15;;;;;;;18.38;39.79;101495.47;5051132;28;20029;-73
2023/03/29 01:46:10;;;;;;;3.03;1.08;;;;;;;18.35;39.56;101496.50;5050887;28;20060;-74
2023/03/29 01:49:05;;;;;;;3.55;1.10;;;;;;;18.33;39.82;101492.31;5050849;28;20044;-72
2023/03/29 01:51:37;;;;;;;3.55;1.10;;;;;;;18.34;39.56;101492.22;5051046;28;20033;-72
2023/03/29 01:54:11;;;;;;;3.33;1.38;;;;;;;18.35;39.44;101483.31;5050568;28;20029;-73
2023/03/29 01:56:40;;;;;;;3.67;1.40;;;;;;;18.34;39.70;101478.16;5050867;28;20081;-74
2023/03/29 01:59:10;;;;;;;3.60;1.33;;;;;;;18.30;39.90;101470.47;5050560;28;20040;-72
2023/03/29 02:01:50;;;;;;;3.80;1.30;;;;;;;18.29;39.75;101471.44;5049402;28;20043;-72
2023/03/29 02:04:22;;;;;;;2.67;1.10;;;;;;;18.30;39.89;101464.34;5054967;28;20389;-72
2023/03/29 02:06:53;;;;;;;3.55;1.27;;;;;;;18.33;39.66;101469.41;5055220;28;20038;-72
2023/03/29 02:09:18;;;;;;;3.53;1.10;;;;;;;18.31;39.73;101464.25;5054512;28;20036;-73
2023/03/29 02:11:44;;;;;;;4.32;1.30;;;;;;;18.32;39.55;101467.72;5054686;28;20046;-72
2023/03/29 02:14:09;;;;;;;2.53;1.00;;;;;;;18.29;39.76;101458.22;5054383;28;20044;-74
2023/03/29 02:16:37;;;;;;;3.95;1.20;;;;;;;18.30;39.58;101454.63;5054251;28;20041;-73
2023/03/29 02:19:04;;;;;;;3.72;1.20;;;;;;;18.30;39.45;101448.50;5053646;28;20033;-72
2023/03/29 02:21:46;;;;;;;2.95;1.13;;;;;;;18.30;39.71;101453.78;5054182;28;20059;-74
2023/03/29 02:24:15;;;;;;;2.53;1.00;;;;;;;18.26;39.51;101441.75;5053603;28;20029;-73
2023/03/29 02:26:41;;;;;;;3.00;1.10;;;;;;;18.28;39.72;101448.63;5053501;28;20029;-74
2023/03/29 02:29:06;;;;;;;3.33;1.23;;;;;;;18.28;39.83;101445.16;5054388;28;20037;-74
2023/03/29 02:31:50;;;;;;;3.33;1.33;;;;;;;18.25;39.87;101438.28;5054263;28;20039;-72
2023/03/29 02:34:36;;;;;;;2.40;1.00;;;;;;;18.24;39.93;101443.69;5054171;28;20059;-72
2023/03/29 02:37:09;;;;;;;2.40;1.20;;;;;;;18.23;39.54;101432.28;5053971;28;20033;-71
2023/03/29 02:39:35;;;;;;;3.13;1.10;;;;;;;18.26;39.60;101436.47;5053892;28;20032;-73
2023/03/29 02:42:02;;;;;;;3.15;1.25;;;;;;;18.26;39.66;101432.06;5053518;28;20032;-72
2023/03/29 02:44:31;;;;;;;2.83;1.15;;;;;;;18.22;39.55;101427.13;5054223;28;20040;-72
2023/03/29 02:47:17;;;;;;;3.97;1.17;;;;;;;18.24;39.47;101427.84;5053199;28;20036;-72
2023/03/29 02:49:42;;;;;;;2.65;1.08;;;;;;;18.25;39.54;101429.53;5053602;28;20520;-71
2023/03/29 02:52:13;;;;;;;3.25;1.17;;;;;;;18.20;39.46;101414.03;5043863;28;20033;-72
2023/03/29 02:54:42;;;;;;;2.88;1.25;;;;;;;18.23;39.76;101407.69;5068786;28;20028;-73
2023/03/29 02:57:07;;;;;;;3.45;1.23;;;;;;;18.21;39.68;101410.44;5053494;28;20032;-72
2023/03/29 02:59:33;;;;;;;3.58;1.40;;;;;;;18.23;39.50;101408.53;5053825;28;20384;-74
2023/03/29 03:01:59;;;;;;;2.28;1.00;;;;;;;18.20;39.25;101402.63;5053759;28;20468;-74
2023/03/29 03:04:25;;;;;;;2.63;1.17;;;;;;;18.21;39.52;101405.16;5053399;28;20362;-71
2023/03/29 03:06:51;;;;;;;3.20;1.23;;;;;;;18.19;39.48;101398.31;5053234;28;20041;-72
2023/03/29 03:09:16;;;;;;;2.72;1.00;;;;;;;18.18;39.33;101408.00;5052388;28;20048;-75
2023/03/29 03:11:43;;;;;;;3.28;1.35;;;;;;;18.20;39.66;101405.25;5052767;28;20139;-73
2023/03/29 03:14:08;;;;;;;2.72;1.20;;;;;;;18.17;39.60;101406.34;5052708;28;20399;-72
2023/03/29 03:16:34;;;;;;;4.30;1.25;;;;;;;18.18;39.46;101404.53;5053656;28;20037;-73
2023/03/29 03:18:59;;;;;;;2.05;0.98;;;;;;;18.18;39.54;101401.91;5053147;28;20032;-73
2023/03/29 03:21:26;;;;;;;2.38;1.10;;;;;;;18.20;39.56;101405.25;5052801;28;20820;-73
2023/03/29 03:23:53;;;;;;;2.78;1.10;;;;;;;18.16;39.27;101398.56;5053207;28;20028;-73
2023/03/29 03:26:19;;;;;;;3.15;1.10;;;;;;;18.16;39.57;101388.00;5052723;28;20036;-71
2023/03/29 03:28:45;;;;;;;3.15;1.20;;;;;;;18.15;39.31;101389.81;5046531;28;20086;-73
2023/03/29 03:31:12;;;;;;;2.63;1.00;;;;;;;18.14;39.27;101382.84;5052651;28;20040;-75
2023/03/29 03:33:39;;;;;;;2.90;1.10;;;;;;;18.11;39.21;101381.25;5052521;28;20035;-74
2023/03/29 03:36:09;;;;;;;3.42;1.50;;;;;;;18.14;39.31;101385.47;5052947;28;20131;-74
2023/03/29 03:38:35;;;;;;;3.50;1.17;;;;;;;18.13;39.21;101392.56;5052247;28;20068;-74
2023/03/29 03:41:00;;;;;;;2.92;1.20;;;;;;;18.15;39.24;101392.44;5052775;28;20037;-74
2023/03/29 03:43:27;;;;;;;3.17;1.35;;;;;;;18.16;39.20;101393.28;5053132;28;20166;-72
2023/03/29 03:45:54;;;;;;;2.35;1.00;;;;;;;18.14;39.38;101390.75;5052027;28;20082;-74
2023/03/29 03:48:20;;;;;;;3.47;1.30;;;;;;;18.14;39.17;101393.38;5053146;28;20044;-74
2023/03/29 03:50:53;;;;;;;2.22;1.08;;;;;;;18.10;39.12;101392.78;5053187;28;20029;-72
2023/03/29 03:53:19;;;;;;;3.22;1.40;;;;;;;18.15;39.13;101396.84;5052675;28;20115;-75
2023/03/29 03:55:48;;;;;;;3.78;1.20;;;;;;;18.11;39.37;101391.78;5052575;28;20135;-73
2023/03/29 03:58:14;;;;;;;2.47;1.02;;;;;;;18.10;39.24;101395.41;5052425;28;20052;-74
2023/03/29 04:00:40;;;;;;;2.45;1.05;;;;;;;18.10;39.39;101390.13;5050466;28;20065;-70
2023/03/29 04:03:05;;;;;;;2.97;1.27;;;;;;;18.12;39.39;101388.22;5052135;28;20032;-73
2023/03/29 04:05:31;;;;;;;2.40;1.00;;;;;;;18.11;38.97;101380.41;5052809;28;20122;-71
2023/03/29 04:07:56;;;;;;;3.40;1.20;;;;;;;18.12;39.24;101376.84;5042291;28;20843;-73
2023/03/29 04:10:22;;;;;;;2.38;1.00;;;;;;;18.11;39.12;101380.41;5052005;28;20481;-73
2023/03/29 04:12:47;;;;;;;3.13;1.08;;;;;;;18.11;39.36;101378.59;5052432;28;20037;-72
2023/03/29 04:15:12;;;;;;;2.63;1.05;;;;;;;18.06;39.05;101372.84;5051449;28;20052;-73
2023/03/29 04:17:38;;;;;;;3.35;1.20;;;;;;;18.09;39.21;101377.88;5052092;28;20041;-73
2023/03/29 04:20:10;;;;;;;3.65;1.15;;;;;;;18.09;39.24;101372.59;5052172;28;20044;-73
2023/03/29 04:22:36;;;;;;;2.40;1.10;;;;;;;18.09;38.98;101371.78;5052174;28;20032;-73
2023/03/29 04:25:02;;;;;;;2.85;1.05;;;;;;;18.09;39.24;101366.50;5051498;28;20033;-72
2023/03/29 04:27:27;;;;;;;1.95;0.98;;;;;;;18.05;39.38;101367.66;5050654;28;20124;-73
2023/03/29 04:29:52;;;;;;;3.85;1.23;;;;;;;18.08;39.31;101367.44;5050558;28;20037;-74
2023/03/29 04:32:17;;;;;;;3.22;1.30;;;;;;;18.08;39.01;101368.28;5052100;28;20088;-74
2023/03/29 04:34:43;;;;;;;3.75;1.20;;;;;;;18.08;39.17;101359.53;5051615;28;20112;-73
2023/03/29 04:37:09;;;;;;;4.10;1.35;;;;;;;18.07;39.34;101360.47;5051329;28;20029;-73
2023/03/29 04:39:37;;;;;;;3.20;1.20;;;;;;;18.06;39.38;101356.19;5052367;28;20079;-73
2023/03/29 04:42:04;;;;;;;2.80;1.20;;;;;;;18.03;39.18;101370.41;5051502;28;20040;-74
2023/03/29 04:44:32;;;;;;;3.40;1.35;;;;;;;18.03;39.23;101362.50;5052045;28;20047;-73
2023/03/29 04:46:57;;;;;;;3.67;1.20;;;;;;;18.04;39.16;101369.47;5052980;28;20039;-73
2023/03/29 04:49:22;;;;;;;2.92;1.20;;;;;;;18.02;39.25;101359.97;5051514;28;20385;-74
2023/03/29 04:51:48;;;;;;;2.85;1.35;;;;;;;18.05;38.99;101367.66;5051683;28;21211;-74
2023/03/29 04:54:13;;;;;;;2.40;1.10;;;;;;;18.00;39.36;101352.19;5051803;28;20039;-73
2023/03/29 04:56:38;;;;;;;4.65;1.27;;;;;;;18.02;39.25;101355.53;5066106;28;20404;-73
2023/03/29 04:59:04;;;;;;;2.88;1.10;;;;;;;18.06;39.61;101351.72;5050999;28;20043;-74
2023/03/29 05:01:29;;;;;;;2.15;0.93;;;;;;;18.06;39.59;101349.09;5051124;28;20028;-74
2023/03/29 05:03:55;;;;;;;2.67;0.93;;;;;;;18.09;39.76;101359.41;5051115;28;20044;-73
2023/03/29 05:06:20;;;;;;;2.47;1.02;;;;;;;18.11;39.95;101354.03;5050737;28;20170;-73
2023/03/29 05:08:46;;;;;;;2.78;1.20;;;;;;;18.16;39.86;101348.44;5051536;28;20381;-74
2023/03/29 05:11:12;;;;;;;3.42;1.15;;;;;;;18.17;39.77;101350.13;5050543;28;20039;-74
2023/03/29 05:13:38;;;;;;;2.42;1.02;;;;;;;18.22;39.68;101346.16;5049453;28;20510;-73
2023/03/29 05:16:03;;;;;;;2.90;1.10;;;;;;;18.23;39.61;101345.22;5050964;28;20037;-72
2023/03/29 05:18:29;;;;;;;3.30;1.20;;;;;;;18.29;39.58;101343.91;5049967;28;20099;-72
2023/03/29 05:20:56;;;;;;;3.30;1.00;;;;;;;18.31;39.42;101340.22;5051543;28;20055;-72
2023/03/29 05:23:21;;;;;;;2.88;1.13;;;;;;;18.32;39.64;101346.31;5051231;28;20060;-72
2023/03/29 05:25:50;;;;;;;2.28;1.00;;;;;;;18.32;39.42;101335.78;5051060;28;20056;-74
2023/03/29 05:28:16;;;;;;;2.45;1.00;;;;;;;18.38;39.47;101342.41;5050804;28;20025;-72
2023/03/29 05:30:41;;;;;;;1.88;0.70;;;;;;;18.38;39.39;101343.25;5050758;28;20423;-73
2023/03/29 05:33:07;;;;;;;2.90;1.25;;;;;;;18.39;39.44;101347.56;5051036;28;20063;-72
2023/03/29 05:35:34;;;;;;;2.67;1.00;;;;;;;18.42;39.49;101359.69;5052381;28;20040;-70
2023/03/29 05:38:00;;;;;;;2.50;0.90;;;;;;;18.42;39.43;101357.91;5054929;28;20082;-73
2023/03/29 05:40:26;;;;;;;2.95;1.10;;;;;;;18.48;39.19;101372.41;5055562;28;20040;-73
2023/03/29 05:42:51;;;;;;;2.55;1.08;;;;;;;18.50;39.34;101362.63;5054639;28;20436;-72
2023/03/29 05:45:18;;;;;;;3.15;1.23;;;;;;;18.52;39.51;101368.63;5054961;28;20036;-72
2023/03/29 05:47:43;;;;;;;2.80;1.00;;;;;;;18.54;39.46;101365.84;5054025;28;20091;-71
2023/03/29 05:50:10;;;;;;;1.15;0.68;;;;;;;18.55;39.27;101360.47;5053081;28;20489;-72
2023/03/29 05:52:36;;;;;;;2.20;0.90;;;;;;;18.56;39.28;101367.41;5052986;28;20033;-74
2023/03/29 05:55:06;;;;;;;3.58;1.20;;;;;;;18.57;39.38;101371.75;5054263;28;20029;-73
2023/03/29 05:57:34;;;;;;;2.50;1.00;;;;;;;18.56;39.46;101364.78;5044618;28;20032;-73
2023/03/29 05:59:59;;;;;;;2.03;1.00;;;;;;;18.60;39.25;101366.22;5053671;28;20044;-72
2023/03/29 06:02:25;;;;;;;3.72;1.20;;;;;;;18.59;39.53;101361.91;5054088;28;20058;-71
2023/03/29 06:04:50;;;;;;;3.53;1.20;;;;;;;18.61;39.18;101364.44;5053866;28;20044;-73
2023/03/29 06:07:16;;;;;;;3.50;0.93;;;;;;;18.60;39.24;101365.41;5052596;28;20041;-72
2023/03/29 06:09:41;;;;;;;5.45;1.10;;;;;;;18.59;39.11;101364.53;5054304;28;20047;-71
2023/03/29 06:12:07;;;;;;;2.15;0.98;;;;;;;18.63;39.25;101366.00;5056110;28;20040;-72
2023/03/29 06:14:32;;;;;;;2.83;1.00;;;;;;;18.63;39.24;101359.91;5053672;28;20094;-72
2023/03/29 06:17:00;;;;;;;3.38;1.20;;;;;;;18.66;39.44;101367.59;5054169;28;20408;-72
2023/03/29 06:19:26;;;;;;;4.10;1.20;;;;;;;18.63;39.48;101359.91;5054017;28;20123;-72
2023/03/29 06:21:53;;;;;;;4.47;1.17;;;;;;;18.65;39.69;101371.16;5054390;28;20132;-73
2023/03/29 06:24:18;;;;;;;2.47;1.00;;;;;;;18.64;39.84;101364.19;5054316;28;20044;-70
2023/03/29 06:26:43;;;;;;;3.55;1.10;;;;;;;18.68;40.00;101374.41;5053772;28;20771;-72
2023/03/29 06:29:09;;;;;;;4.10;1.20;;;;;;;18.63;39.88;101359.91;5053763;28;20075;-72
2023/03/29 06:31:35;;;;;;;2.47;1.00;;;;;;;18.69;40.10;101375.25;5053600;28;20553;-72
2023/03/29 06:34:01;;;;;;;3.60;1.20;;;;;;;18.70;40.32;101374.31;5053990;28;20071;-75
2023/03/29 06:36:26;;;;;;;2.15;0.90;;;;;;;18.68;40.05;101363.03;5053793;28;20056;-73
2023/03/29 06:38:51;;;;;;;2.80;1.30;;;;;;;18.73;40.06;101365.31;5053293;28;20461;-73
2023/03/29 06:41:17;;;;;;;3.33;1.15;;;;;;;18.71;40.25;101361.94;5053061;28;20037;-73
2023/03/29 06:43:42;;;;;;;2.55;1.05;;;;;;;18.73;40.29;101360.88;5053897;28;20441;-73
2023/03/29 06:46:10;;;;;;;3.25;1.20;;;;;;;18.75;40.22;101361.59;5051721;28;20043;-72
2023/03/29 06:48:36;;;;;;;3.30;1.20;;;;;;;18.72;40.48;101353.06;5052105;28;20056;-73
2023/03/29 06:51:02;;;;;;;2.72;1.02;;;;;;;18.74;40.40;101359.91;5053531;28;20496;-73
2023/03/29 06:53:27;;;;;;;2.78;1.00;;;;;;;18.77;40.49;101369.38;5053168;28;20029;-73
2023/03/29 06:55:52;;;;;;;3.67;1.60;;;;;;;18.75;40.61;101366.88;5053839;28;20450;-76
2023/03/29 06:58:18;;;;;;;3.63;1.17;;;;;;;18.79;40.42;101364.84;5051950;28;20037;-72
2023/03/29 07:00:44;;;;;;;3.63;1.58;;;;;;;18.79;40.61;101368.31;5053734;28;20058;-74
2023/03/29 07:03:15;;;;;;;4.60;1.50;;;;;;;18.81;40.84;101368.22;5052407;28;20029;-73
2023/03/29 07:05:40;;;;;;;3.55;1.17;;;;;;;18.80;40.94;101370.03;5054029;28;20099;-74
2023/03/29 07:10:37;;;;;;;3.50;1.40;;;;;;;18.80;40.92;101372.66;5054122;28;20067;-73
2023/03/29 07:13:04;;;;;;;4.13;1.60;;;;;;;18.86;40.93;101387.22;5052539;28;20561;-74
2023/03/29 07:15:31;;;;;;;5.10;1.60;;;;;;;18.85;41.32;101378.47;5051750;28;20056;-78
2023/03/29 07:17:56;;;;;;;6.10;1.52;;;;;;;18.85;41.96;101375.81;5053624;28;20060;-75
2023/03/29 07:20:22;;;;;;;3.97;1.60;;;;;;;18.89;42.14;101370.31;5053454;28;20442;-73
2023/03/29 07:22:49;;;;;;;5.35;2.10;;;;;;;18.95;42.08;101383.88;5053016;28;20119;-74
2023/03/29 07:25:16;;;;;;;6.93;1.63;;;;;;;18.96;42.19;101382.94;5068713;28;20033;-73
2023/03/29 07:27:41;;;;;;;4.32;1.70;;;;;;;18.95;42.39;101388.34;5053229;28;20385;-72
2023/03/29 07:30:09;;;;;;;5.65;1.80;;;;;;;18.99;42.39;101397.69;5053230;28;20028;-73
2023/03/29 07:32:39;;;;;;;4.30;1.48;;;;;;;19.01;42.18;101401.06;5002880;28;20040;-72
2023/03/29 07:35:07;;;;;;;4.95;1.85;;;;;;;18.99;42.33;101393.28;5052154;28;20029;-73
2023/03/29 07:37:34;;;;;;;4.32;1.60;;;;;;;19.03;42.66;101409.72;5052284;28;20025;-71
2023/03/29 07:40:02;;;;;;;6.65;1.85;;;;;;;18.97;42.37;101403.09;5052222;28;20106;-73
2023/03/29 07:42:27;;;;;;;4.30;1.40;;;;;;;19.01;42.35;101406.34;5051249;28;20040;-73
2023/03/29 07:44:53;;;;;;;5.50;1.65;;;;;;;18.97;42.31;101412.81;5051586;28;20386;-74
2023/03/29 07:47:18;;;;;;;5.45;1.50;;;;;;;19.02;42.24;101419.41;5052632;28;20174;-72
2023/03/29 07:49:44;;;;;;;4.35;1.55;;;;;;;19.05;42.46;101417.53;5052436;28;20485;-71
2023/03/29 07:52:09;;;;;;;7.40;1.98;;;;;;;19.05;42.52;101418.34;5052714;28;20516;-71
2023/03/29 07:54:34;;;;;;;5.65;1.70;;;;;;;19.05;42.33;101415.72;5052712;28;20028;-72
2023/03/29 07:56:59;;;;;;;4.40;1.75;;;;;;;19.05;42.24;101409.59;5047167;28;20059;-71
2023/03/29 07:59:26;;;;;;;5.70;1.80;;;;;;;19.08;42.22;101420.75;5050019;28;20157;-73
2023/03/29 08:01:52;;;;;;;4.50;1.60;;;;;;;19.16;41.99;101417.53;5051333;28;20533;-73
2023/03/29 08:04:17;;;;;;;3.83;1.58;;;;;;;19.19;41.89;101417.31;5051610;28;21191;-72
2023/03/29 08:06:43;;;;;;;5.38;1.70;;;;;;;19.20;41.54;101416.31;5050015;28;20036;-74
2023/03/29 08:09:08;;;;;;;5.80;1.95;;;;;;;19.23;41.81;101408.16;5051273;28;20037;-73
2023/03/29 08:11:33;;;;;;;7.43;1.90;;;;;;;19.25;41.63;101406.28;5051623;28;20043;-73
2023/03/29 08:13:58;;;;;;;6.10;1.65;;;;;;;19.24;41.59;101403.75;5051245;28;20028;-74
2023/03/29 08:16:24;;;;;;;5.05;1.85;;;;;;;19.24;41.65;101406.38;5051101;28;20492;-71
2023/03/29 08:18:49;;;;;;;6.28;1.83;;;;;;;19.23;41.86;101410.81;5052239;28;20442;-72
2023/03/29 08:21:21;;;;;;;4.88;1.80;;;;;;;19.28;41.64;101413.97;5047519;28;20474;-70
2023/03/29 08:23:47;;;;;;;5.90;1.77;;;;;;;19.34;41.79;101415.28;5051078;28;20512;-72
2023/03/29 08:26:12;;;;;;;4.93;1.75;;;;;;;19.32;41.74;101398.69;5050133;28;20033;-71
2023/03/29 08:28:38;;;;;;;4.82;1.70;;;;;;;19.34;41.69;101402.91;5042221;28;20474;-71
2023/03/29 08:31:05;;;;;;;3.53;1.60;;;;;;;19.28;41.79;101384.91;5044759;28;20464;-72
2023/03/29 08:33:31;;;;;;;5.38;2.10;;;;;;;19.29;41.95;101397.13;5062469;28;20152;-70
2023/03/29 08:35:56;;;;;;;4.53;1.67;;;;;;;19.26;42.00;101394.72;5038230;28;20076;-72
2023/03/29 08:38:21;;;;;;;4.68;1.55;;;;;;;19.24;42.07;101386.09;5047317;28;21114;-73
2023/03/29 08:40:48;;;;;;;4.30;1.73;;;;;;;19.23;42.27;101388.84;5050216;28;20061;-74
2023/03/29 08:43:32;;;;;;;6.65;1.65;;;;;;;19.23;42.15;101389.66;5056858;28;20045;-72
2023/03/29 08:46:10;;;;;;;5.90;1.83;;;;;;;19.21;42.09;101394.25;5046270;28;20037;-73
2023/03/29 08:48:48;;;;;;;5.57;1.95;;;;;;;19.20;42.31;101392.56;5043335;28;20460;-72
2023/03/29 08:51:43;;;;;;;7.15;1.67;;;;;;;19.24;42.20;101396.66;5040465;28;20116;-69
2023/03/29 08:54:20;;;;;;;6.95;1.77;;;;;;;19.23;42.30;101387.03;5039051;28;20501;-69
2023/03/29 08:56:47;;;;;;;4.78;1.80;;;;;;;19.31;42.35;101397.00;5045592;28;20021;-76
2023/03/29 08:59:33;;;;;;;5.47;1.92;;;;;;;19.28;42.32;101391.97;5025229;28;20564;-70
2023/03/29 09:02:01;;;;;;;6.28;2.03;;;;;;;19.27;42.32;101385.84;5036710;28;20527;-72
2023/03/29 09:04:32;;;;;;;7.63;2.05;;;;;;;19.25;42.46;101392.19;5046206;28;20136;-69
2023/03/29 09:06:58;;;;;;;5.40;2.00;;;;;;;19.24;42.54;101388.72;5045979;28;20108;-74
2023/03/29 09:09:31;;;;;;;5.18;1.60;;;;;;;19.24;42.48;101394.00;5046285;28;20033;-71
2023/03/29 09:12:15;;;;;;;5.47;1.85;;;;;;;19.25;42.55;101384.28;5024935;28;20039;-68
2023/03/29 09:14:56;;;;;;;5.55;1.67;;;;;;;19.23;42.49;101386.19;5051429;28;20043;-67
2023/03/29 09:17:34;;;;;;;5.15;2.45;;;;;;;19.23;42.61;101396.78;5048497;28;20045;-69
2023/03/29 09:20:30;;;;;;;3.92;1.48;;;;;;;19.20;42.57;101390.78;5050387;28;20077;-70
2023/03/29 09:23:12;;;;;;;4.25;1.70;;;;;;;19.27;42.63;101401.69;5044120;28;20162;-73
2023/03/29 09:25:56;;;;;;;5.90;1.70;;;;;;;19.37;42.13;101388.59;5041279;28;20127;-73
2023/03/29 09:28:30;;;;;;;;;;;;;;;19.46;42.06;101379.97;5051942;28;20043;-72
2023/03/29 09:31:18;;;;;;;7.65;1.90;;;;;;;19.44;42.09;101389.81;5046882;28;19916;-74
2023/03/29 09:34:13;;;;;;;5.07;2.05;;;;;;;19.40;42.13;101391.00;5055611;28;20481;-73
2023/03/29 09:36:39;;;;;;;4.60;1.63;;;;;;;19.40;42.26;101397.13;5006944;28;20799;-73
2023/03/29 09:39:04;;;;;;;5.40;1.83;;;;;;;19.34;42.36;101396.78;5037652;28;20041;-74
2023/03/29 09:41:41;;;;;;;6.57;1.75;;;;;;;19.29;42.42;101401.59;5033982;28;20036;-74
2023/03/29 09:44:11;;;;;;;4.05;1.52;;;;;;;19.28;42.29;101390.19;5029036;28;20551;-75
2023/03/29 09:46:44;;;;;;;5.65;2.03;;;;;;;19.24;42.70;101396.66;5030593;28;20124;-75
2023/03/29 09:49:24;;;;;;;5.55;1.98;;;;;;;19.23;42.47;101396.78;5037451;28;20064;-76
2023/03/29 09:51:50;;;;;;;3.92;1.73;;;;;;;19.21;42.65;101383.66;5033216;28;20071;-76
2023/03/29 09:54:15;;;;;;;4.97;2.00;;;;;;;19.17;42.75;101383.06;5038666;28;20477;-76
2023/03/29 09:56:41;;;;;;;4.20;1.60;;;;;;;19.18;42.91;101392.69;5017227;28;20041;-75
2023/03/29 09:59:10;;;;;;;6.05;1.80;;;;;;;19.13;43.03;101397.47;5035453;28;21206;-75
2023/03/29 10:01:40;;;;;;;4.90;1.83;;;;;;;19.13;43.03;101394.81;5028525;28;20033;-74
2023/03/29 10:04:07;;;;;;;5.43;2.00;;;;;;;19.10;43.16;101395.06;5032765;28;20120;-73
2023/03/29 10:06:34;;;;;;;7.88;1.90;;;;;;;19.13;43.17;101399.28;5037171;28;20033;-73
2023/03/29 10:09:00;;;;;;;4.97;2.00;;;;;;;19.11;43.13;101391.47;5016160;28;20037;-71
2023/03/29 10:11:31;;;;;;;3.40;1.50;;;;;;;19.05;43.43;101393.75;5032863;28;20363;-74
2023/03/29 10:14:13;;;;;;;4.07;1.92;;;;;;;19.05;43.53;101394.59;5026293;28;20036;-71
2023/03/29 10:16:40;;;;;;;3.85;1.60;;;;;;;19.09;43.52;101381.97;5024104;28;20028;-72
2023/03/29 10:19:18;;;;;;;6.15;2.05;;;;;;;19.15;43.53;101392.06;5027240;28;20029;-72
2023/03/29 10:21:45;;;;;;;4.28;1.90;;;;;;;19.11;43.67;101386.19;5034205;28;20041;-71
2023/03/29 10:24:11;;;;;;;6.25;2.03;;;;;;;19.08;43.81;101385.59;5031432;28;20053;-72
2023/03/29 10:26:37;;;;;;;4.03;1.77;;;;;;;19.05;44.09;101383.19;5026850;28;20102;-70
2023/03/29 10:29:06;;;;;;;4.75;1.40;;;;;;;19.09;44.00;101368.75;5026458;28;20742;-71
2023/03/29 10:31:31;;;;;;;5.10;2.00;;;;;;;19.19;43.70;101367.94;5036571;28;20504;-73
2023/03/29 10:34:02;;;;;;;4.57;1.90;;;;;;;19.21;43.56;101358.09;5035030;28;20025;-74
2023/03/29 10:36:27;;;;;;;2.92;1.40;;;;;;;19.24;43.40;101362.28;5033043;28;20033;-73
2023/03/29 10:38:57;;;;;;;4.68;2.00;;;;;;;19.24;43.72;101359.66;5030944;28;20048;-74
2023/03/29 10:41:25;;;;;;;4.80;1.65;;;;;;;19.26;43.71;101362.19;5035484;28;20040;-73
2023/03/29 10:43:51;;;;;;;5.97;1.70;;;;;;;19.24;43.56;101364.13;5028389;28;20037;-70
2023/03/29 10:46:29;;;;;;;4.75;2.13;;;;;;;19.22;43.92;101348.38;5040402;28;21303;-72
2023/03/29 10:49:09;;;;;;;7.95;2.45;;;;;;;19.26;43.84;101352.44;5031693;28;20674;-67
2023/03/29 10:51:34;;;;;;;6.32;2.42;;;;;;;19.30;43.86;101338.03;5034648;28;20564;-71
2023/03/29 10:54:00;;;;;;;5.25;1.85;;;;;;;19.21;43.79;101326.38;5029927;28;20116;-68
2023/03/29 10:56:48;;;;;;;6.00;2.00;;;;;;;19.23;44.45;101330.72;5021835;28;20470;-68
2023/03/29 10:59:30;;;;;;;5.78;1.95;;;;;;;19.20;43.98;101326.50;5026619;28;20033;-69
2023/03/29 11:02:13;;;;;;;6.65;1.88;;;;;;;19.18;44.37;101318.72;5027579;28;20037;-70
2023/03/29 11:04:45;;;;;;;5.93;1.95;;;;;;;19.21;44.31;101314.97;5027461;28;20116;-70
2023/03/29 11:07:26;;;;;;;4.70;1.75;;;;;;;19.19;44.46;101311.63;5030237;28;20462;-70
2023/03/29 11:10:19;;;;;;;5.03;1.75;;;;;;;19.20;44.59;101310.63;5020864;28;20061;-69
2023/03/29 11:13:13;;;;;;;4.75;1.90;;;;;;;19.22;44.55;101316.66;5031039;28;20032;-70
2023/03/29 11:15:54;;;;;;;7.30;1.80;;;;;;;19.31;44.16;101315.94;5038555;28;20033;-73
2023/03/29 11:18:51;;;;;;;7.13;1.90;;;;;;;19.36;44.06;101297.91;5025680;28;20324;-73
2023/03/29 11:21:38;;;;;;;4.55;1.70;;;;;;;19.43;43.93;101303.56;5025544;28;20049;-73
2023/03/29 11:24:45;;;;;;;4.30;1.83;;;;;;;19.40;44.42;101306.44;5034574;28;20151;-75
2023/03/29 11:27:37;;;;;;;11.18;2.63;;;;;;;19.40;44.40;101312.56;5038485;28;20539;-72
2023/03/29 11:30:14;;;;;;;4.38;1.92;;;;;;;19.36;44.29;101303.19;5025337;28;20068;-75
2023/03/29 11:33:10;;;;;;;5.70;2.03;;;;;;;19.35;44.59;101314.72;5033678;28;20119;-74
2023/03/29 11:36:03;;;;;;;6.88;1.88;;;;;;;19.34;44.61;101326.28;5021683;28;20033;-73
2023/03/29 11:38:54;;;;;;;4.60;1.90;;;;;;;19.32;44.62;101314.13;5030323;28;20451;-72